BOS weather

General Edward Lawrence Logan International Airport
Boston, Massachusetts, United States

Public forecast

Using degrees Fahrenheit for public forecast. Weather courtesy of forecast.io.

METAR (pilot weather report)

Retrieved 2018/06/18 13:54 UTC (60 minutes ago):

KBOS 181354Z 22013G18KT 10SM FEW180 BKN250 28/18 A2991 RMK AO2 SLP128 T02780183

TAF (pilot weather forecast)

Retrieved 2018/06/18 12:31 UTC (2 hours ago):

TAF KBOS 181122Z 1812/1918 22012KT P6SM SCT200 FM181500 23013G27KT P6SM SCT060 FM182100 23016G28KT P6SM VCTS BKN060CB FM190300 23009KT P6SM OVC060 FM190500 24008KT P6SM OVC060 FM191000 31006KT P6SM BKN050